sensor_id;sensor_type;location;lat;lon;timestamp;P1;durP1;ratioP1;P2;durP2;ratioP2
8552;SDS011;73833;51.014;16.950;2023-12-22T05:34:14;39.33;;;10.63;;
8552;SDS011;73833;51.014;16.950;2023-12-22T05:36:39;34.65;;;12.43;;
8552;SDS011;73833;51.014;16.950;2023-12-22T05:39:04;51.85;;;13.02;;
8552;SDS011;73833;51.014;16.950;2023-12-22T05:41:33;34.92;;;11.10;;
8552;SDS011;73833;51.014;16.950;2023-12-22T05:43:59;29.20;;;11.00;;
8552;SDS011;73833;51.014;16.950;2023-12-22T05:46:24;34.58;;;10.88;;
8552;SDS011;73833;51.014;16.950;2023-12-22T05:48:49;27.88;;;9.13;;
8552;SDS011;73833;51.014;16.950;2023-12-22T05:51:14;31.42;;;8.90;;
8552;SDS011;73833;51.014;16.950;2023-12-22T05:53:40;30.50;;;8.45;;
8552;SDS011;73833;51.014;16.950;2023-12-22T05:56:06;26.80;;;8.43;;
8552;SDS011;73833;51.014;16.950;2023-12-22T05:58:41;21.50;;;7.35;;
8552;SDS011;73833;51.014;16.950;2023-12-22T06:01:06;23.90;;;7.63;;
8552;SDS011;73833;51.014;16.950;2023-12-22T06:03:31;22.60;;;7.43;;
8552;SDS011;73833;51.014;16.950;2023-12-22T06:05:57;22.88;;;6.68;;
8552;SDS011;73833;51.014;16.950;2023-12-22T06:08:22;25.10;;;7.43;;
8552;SDS011;73833;51.014;16.950;2023-12-22T06:10:47;20.27;;;7.57;;
8552;SDS011;73833;51.014;16.950;2023-12-22T06:13:12;16.83;;;6.82;;
8552;SDS011;73833;51.014;16.950;2023-12-22T06:15:37;18.33;;;6.60;;
8552;SDS011;73833;51.014;16.950;2023-12-22T06:18:03;15.32;;;6.60;;
8552;SDS011;73833;51.014;16.950;2023-12-22T06:20:28;18.00;;;6.72;;
8552;SDS011;73833;51.014;16.950;2023-12-22T06:22:53;23.33;;;9.20;;
8552;SDS011;73833;51.014;16.950;2023-12-22T06:25:19;19.83;;;7.05;;
8552;SDS011;73833;51.014;16.950;2023-12-22T06:27:45;25.13;;;8.23;;
8552;SDS011;73833;51.014;16.950;2023-12-22T06:30:10;26.50;;;8.32;;
8552;SDS011;73833;51.014;16.950;2023-12-22T06:32:35;26.05;;;8.00;;
8552;SDS011;73833;51.014;16.950;2023-12-22T06:35:04;24.85;;;8.20;;
8552;SDS011;73833;51.014;16.950;2023-12-22T06:37:30;23.30;;;7.72;;
8552;SDS011;73833;51.014;16.950;2023-12-22T06:39:55;15.50;;;6.60;;
8552;SDS011;73833;51.014;16.950;2023-12-22T06:42:20;21.35;;;7.43;;
8552;SDS011;73833;51.014;16.950;2023-12-22T06:44:46;18.30;;;7.10;;
8552;SDS011;73833;51.014;16.950;2023-12-22T06:47:11;15.82;;;7.47;;
8552;SDS011;73833;51.014;16.950;2023-12-22T06:49:36;19.88;;;6.85;;
8552;SDS011;73833;51.014;16.950;2023-12-22T06:52:02;21.77;;;7.57;;
8552;SDS011;73833;51.014;16.950;2023-12-22T06:54:27;14.50;;;6.35;;
8552;SDS011;73833;51.014;16.950;2023-12-22T06:56:54;15.52;;;5.60;;
8552;SDS011;73833;51.014;16.950;2023-12-22T06:59:19;16.85;;;6.97;;
8552;SDS011;73833;51.014;16.950;2023-12-22T07:01:44;13.48;;;6.43;;
8552;SDS011;73833;51.014;16.950;2023-12-22T07:04:10;20.98;;;6.35;;
8552;SDS011;73833;51.014;16.950;2023-12-22T07:06:35;26.15;;;6.30;;
8552;SDS011;73833;51.014;16.950;2023-12-22T07:09:42;16.33;;;6.53;;
8552;SDS011;73833;51.014;16.950;2023-12-22T07:11:50;18.90;;;5.97;;
8552;SDS011;73833;51.014;16.950;2023-12-22T07:14:15;15.57;;;5.55;;
8552;SDS011;73833;51.014;16.950;2023-12-22T07:16:41;18.05;;;6.25;;
8552;SDS011;73833;51.014;16.950;2023-12-22T07:19:07;16.30;;;6.10;;
8552;SDS011;73833;51.014;16.950;2023-12-22T07:21:32;17.45;;;5.57;;
8552;SDS011;73833;51.014;16.950;2023-12-22T07:23:58;15.02;;;6.20;;
8552;SDS011;73833;51.014;16.950;2023-12-22T07:26:23;14.20;;;5.60;;
8552;SDS011;73833;51.014;16.950;2023-12-22T07:28:49;13.77;;;5.95;;
8552;SDS011;73833;51.014;16.950;2023-12-22T07:31:14;20.88;;;6.20;;
8552;SDS011;73833;51.014;16.950;2023-12-22T07:33:39;15.35;;;5.20;;
8552;SDS011;73833;51.014;16.950;2023-12-22T07:36:05;10.98;;;5.03;;
8552;SDS011;73833;51.014;16.950;2023-12-22T07:38:31;14.45;;;5.03;;
8552;SDS011;73833;51.014;16.950;2023-12-22T07:40:56;14.02;;;5.20;;
8552;SDS011;73833;51.014;16.950;2023-12-22T07:43:21;18.65;;;5.55;;
8552;SDS011;73833;51.014;16.950;2023-12-22T07:45:47;10.20;;;4.70;;
8552;SDS011;73833;51.014;16.950;2023-12-22T07:48:12;16.48;;;4.97;;
8552;SDS011;73833;51.014;16.950;2023-12-22T07:50:38;11.02;;;5.00;;
8552;SDS011;73833;51.014;16.950;2023-12-22T07:53:04;11.07;;;4.70;;
8552;SDS011;73833;51.014;16.950;2023-12-22T07:55:29;13.20;;;4.70;;
8552;SDS011;73833;51.014;16.950;2023-12-22T07:57:54;12.73;;;4.80;;
8552;SDS011;73833;51.014;16.950;2023-12-22T08:00:19;11.13;;;4.85;;
8552;SDS011;73833;51.014;16.950;2023-12-22T08:02:45;12.18;;;4.72;;
8552;SDS011;73833;51.014;16.950;2023-12-22T08:05:10;7.93;;;4.50;;
8552;SDS011;73833;51.014;16.950;2023-12-22T08:07:36;11.65;;;4.57;;
8552;SDS011;73833;51.014;16.950;2023-12-22T08:10:01;7.65;;;4.55;;
8552;SDS011;73833;51.014;16.950;2023-12-22T08:12:27;8.18;;;4.32;;
8552;SDS011;73833;51.014;16.950;2023-12-22T08:14:53;10.18;;;4.30;;
8552;SDS011;73833;51.014;16.950;2023-12-22T08:17:18;14.13;;;4.38;;
8552;SDS011;73833;51.014;16.950;2023-12-22T08:19:43;6.28;;;3.90;;
8552;SDS011;73833;51.014;16.950;2023-12-22T08:22:11;8.88;;;4.07;;
8552;SDS011;73833;51.014;16.950;2023-12-22T08:24:40;9.63;;;3.80;;
8552;SDS011;73833;51.014;16.950;2023-12-22T08:27:05;7.80;;;4.15;;
8552;SDS011;73833;51.014;16.950;2023-12-22T08:29:33;8.13;;;4.10;;
8552;SDS011;73833;51.014;16.950;2023-12-22T08:31:59;8.38;;;4.10;;
8552;SDS011;73833;51.014;16.950;2023-12-22T08:34:25;7.13;;;4.43;;
8552;SDS011;73833;51.014;16.950;2023-12-22T08:36:50;8.40;;;4.07;;
8552;SDS011;73833;51.014;16.950;2023-12-22T08:39:16;9.47;;;4.37;;
8552;SDS011;73833;51.014;16.950;2023-12-22T08:41:41;10.00;;;3.50;;
8552;SDS011;73833;51.014;16.950;2023-12-22T08:44:07;10.10;;;4.07;;
8552;SDS011;73833;51.014;16.950;2023-12-22T08:46:33;12.00;;;4.25;;
8552;SDS011;73833;51.014;16.950;2023-12-22T08:48:58;10.15;;;3.92;;
8552;SDS011;73833;51.014;16.950;2023-12-22T08:51:24;6.55;;;4.07;;
8552;SDS011;73833;51.014;16.950;2023-12-22T08:53:50;7.40;;;3.67;;
8552;SDS011;73833;51.014;16.950;2023-12-22T08:56:17;5.85;;;3.50;;
8552;SDS011;73833;51.014;16.950;2023-12-22T08:58:42;7.65;;;3.30;;
8552;SDS011;73833;51.014;16.950;2023-12-22T09:01:08;8.77;;;3.83;;
8552;SDS011;73833;51.014;16.950;2023-12-22T09:03:38;9.13;;;3.65;;
8552;SDS011;73833;51.014;16.950;2023-12-22T09:06:08;7.15;;;3.60;;
8552;SDS011;73833;51.014;16.950;2023-12-22T09:08:33;8.52;;;3.47;;
8552;SDS011;73833;51.014;16.950;2023-12-22T09:10:59;6.22;;;2.83;;
8552;SDS011;73833;51.014;16.950;2023-12-22T09:13:24;6.55;;;3.20;;
8552;SDS011;73833;51.014;16.950;2023-12-22T09:15:49;9.07;;;4.17;;
8552;SDS011;73833;51.014;16.950;2023-12-22T09:18:15;4.78;;;3.22;;
8552;SDS011;73833;51.014;16.950;2023-12-22T09:20:40;7.78;;;3.47;;
8552;SDS011;73833;51.014;16.950;2023-12-22T09:23:05;5.57;;;3.33;;
8552;SDS011;73833;51.014;16.950;2023-12-22T09:25:33;6.60;;;3.10;;
8552;SDS011;73833;51.014;16.950;2023-12-22T09:27:58;13.80;;;3.90;;
8552;SDS011;73833;51.014;16.950;2023-12-22T09:30:23;5.38;;;3.00;;
8552;SDS011;73833;51.014;16.950;2023-12-22T09:32:49;6.22;;;3.20;;
8552;SDS011;73833;51.014;16.950;2023-12-22T09:35:14;4.95;;;2.85;;
8552;SDS011;73833;51.014;16.950;2023-12-22T09:37:39;5.85;;;3.08;;
8552;SDS011;73833;51.014;16.950;2023-12-22T09:40:05;9.05;;;2.92;;
8552;SDS011;73833;51.014;16.950;2023-12-22T09:42:33;3.80;;;3.10;;
8552;SDS011;73833;51.014;16.950;2023-12-22T09:44:59;4.72;;;2.90;;
8552;SDS011;73833;51.014;16.950;2023-12-22T09:47:26;4.32;;;2.50;;
8552;SDS011;73833;51.014;16.950;2023-12-22T09:49:54;4.55;;;2.70;;
8552;SDS011;73833;51.014;16.950;2023-12-22T09:52:19;3.58;;;2.97;;
8552;SDS011;73833;51.014;16.950;2023-12-22T09:54:45;5.07;;;2.70;;
8552;SDS011;73833;51.014;16.950;2023-12-22T09:57:12;7.38;;;2.80;;
8552;SDS011;73833;51.014;16.950;2023-12-22T09:59:37;5.18;;;2.75;;
8552;SDS011;73833;51.014;16.950;2023-12-22T10:02:03;3.28;;;2.53;;
8552;SDS011;73833;51.014;16.950;2023-12-22T10:04:29;7.90;;;2.92;;
8552;SDS011;73833;51.014;16.950;2023-12-22T10:06:56;6.32;;;2.92;;
8552;SDS011;73833;51.014;16.950;2023-12-22T10:09:23;5.57;;;3.20;;
8552;SDS011;73833;51.014;16.950;2023-12-22T10:11:49;5.38;;;2.72;;
8552;SDS011;73833;51.014;16.950;2023-12-22T10:14:14;4.32;;;3.15;;
8552;SDS011;73833;51.014;16.950;2023-12-22T10:16:45;6.43;;;2.97;;
8552;SDS011;73833;51.014;16.950;2023-12-22T10:19:10;6.43;;;3.30;;
8552;SDS011;73833;51.014;16.950;2023-12-22T10:21:36;7.75;;;2.78;;
8552;SDS011;73833;51.014;16.950;2023-12-22T10:24:01;5.97;;;2.90;;
8552;SDS011;73833;51.014;16.950;2023-12-22T10:26:26;3.58;;;2.80;;
8552;SDS011;73833;51.014;16.950;2023-12-22T10:28:53;3.92;;;2.90;;
8552;SDS011;73833;51.014;16.950;2023-12-22T10:31:18;4.63;;;2.80;;
8552;SDS011;73833;51.014;16.950;2023-12-22T10:33:43;6.05;;;2.45;;
8552;SDS011;73833;51.014;16.950;2023-12-22T10:36:09;6.05;;;2.95;;
8552;SDS011;73833;51.014;16.950;2023-12-22T10:38:35;7.70;;;2.80;;
8552;SDS011;73833;51.014;16.950;2023-12-22T10:41:00;7.30;;;2.80;;
8552;SDS011;73833;51.014;16.950;2023-12-22T10:43:26;4.55;;;2.88;;
8552;SDS011;73833;51.014;16.950;2023-12-22T10:45:52;6.30;;;2.88;;
8552;SDS011;73833;51.014;16.950;2023-12-22T10:48:17;4.72;;;2.83;;
8552;SDS011;73833;51.014;16.950;2023-12-22T10:50:42;4.50;;;2.55;;
8552;SDS011;73833;51.014;16.950;2023-12-22T10:53:08;5.95;;;2.60;;
8552;SDS011;73833;51.014;16.950;2023-12-22T10:55:35;4.22;;;2.63;;
8552;SDS011;73833;51.014;16.950;2023-12-22T10:58:03;5.13;;;2.47;;
8552;SDS011;73833;51.014;16.950;2023-12-22T11:00:30;4.68;;;2.50;;
8552;SDS011;73833;51.014;16.950;2023-12-22T11:02:58;3.35;;;2.47;;
8552;SDS011;73833;51.014;16.950;2023-12-22T11:05:25;5.03;;;2.85;;
8552;SDS011;73833;51.014;16.950;2023-12-22T11:07:53;4.68;;;2.33;;
8552;SDS011;73833;51.014;16.950;2023-12-22T11:10:20;4.13;;;2.60;;
8552;SDS011;73833;51.014;16.950;2023-12-22T11:12:48;5.85;;;2.72;;
8552;SDS011;73833;51.014;16.950;2023-12-22T11:15:15;7.47;;;3.10;;
8552;SDS011;73833;51.014;16.950;2023-12-22T11:17:41;9.60;;;2.95;;
8552;SDS011;73833;51.014;16.950;2023-12-22T11:20:10;2.90;;;2.60;;
8552;SDS011;73833;51.014;16.950;2023-12-22T11:22:36;3.65;;;2.40;;
8552;SDS011;73833;51.014;16.950;2023-12-22T11:25:04;4.88;;;2.22;;
8552;SDS011;73833;51.014;16.950;2023-12-22T11:27:29;5.60;;;2.58;;
8552;SDS011;73833;51.014;16.950;2023-12-22T11:29:57;3.13;;;2.30;;
8552;SDS011;73833;51.014;16.950;2023-12-22T11:32:23;5.05;;;2.30;;
8552;SDS011;73833;51.014;16.950;2023-12-22T11:34:49;5.93;;;2.60;;
8552;SDS011;73833;51.014;16.950;2023-12-22T11:37:15;4.85;;;2.72;;
8552;SDS011;73833;51.014;16.950;2023-12-22T11:39:40;4.35;;;2.65;;
8552;SDS011;73833;51.014;16.950;2023-12-22T11:42:10;4.32;;;2.58;;
8552;SDS011;73833;51.014;16.950;2023-12-22T11:44:36;7.15;;;2.58;;
8552;SDS011;73833;51.014;16.950;2023-12-22T11:47:05;2.97;;;2.33;;
8552;SDS011;73833;51.014;16.950;2023-12-22T11:49:31;5.63;;;2.28;;
8552;SDS011;73833;51.014;16.950;2023-12-22T11:51:57;4.93;;;2.53;;
8552;SDS011;73833;51.014;16.950;2023-12-22T11:57:09;2.90;;;2.63;;
8552;SDS011;73833;51.014;16.950;2023-12-22T11:59:51;5.75;;;2.85;;
8552;SDS011;73833;51.014;16.950;2023-12-22T12:02:16;6.95;;;2.40;;
8552;SDS011;73833;51.014;16.950;2023-12-22T12:04:42;4.20;;;2.53;;
8552;SDS011;73833;51.014;16.950;2023-12-22T12:09:51;11.48;;;2.58;;
8552;SDS011;73833;51.014;16.950;2023-12-22T12:12:16;3.38;;;2.65;;
8552;SDS011;73833;51.014;16.950;2023-12-22T12:14:43;3.92;;;2.38;;
8552;SDS011;73833;51.014;16.950;2023-12-22T12:17:09;6.20;;;2.53;;
8552;SDS011;73833;51.014;16.950;2023-12-22T12:19:38;7.57;;;2.20;;
8552;SDS011;73833;51.014;16.950;2023-12-22T12:22:04;3.22;;;2.30;;
8552;SDS011;73833;51.014;16.950;2023-12-22T12:24:29;8.38;;;2.45;;
8552;SDS011;73833;51.014;16.950;2023-12-22T12:26:55;3.17;;;2.58;;
8552;SDS011;73833;51.014;16.950;2023-12-22T12:29:20;3.97;;;2.10;;
8552;SDS011;73833;51.014;16.950;2023-12-22T12:31:46;19.77;;;3.63;;
8552;SDS011;73833;51.014;16.950;2023-12-22T12:34:12;4.57;;;2.55;;
8552;SDS011;73833;51.014;16.950;2023-12-22T12:36:39;6.10;;;2.40;;
8552;SDS011;73833;51.014;16.950;2023-12-22T12:39:06;6.03;;;2.60;;
8552;SDS011;73833;51.014;16.950;2023-12-22T12:41:41;3.50;;;2.60;;
8552;SDS011;73833;51.014;16.950;2023-12-22T12:44:08;4.32;;;2.33;;
8552;SDS011;73833;51.014;16.950;2023-12-22T12:46:35;4.82;;;2.42;;
8552;SDS011;73833;51.014;16.950;2023-12-22T12:51:30;5.03;;;2.30;;
8552;SDS011;73833;51.014;16.950;2023-12-22T12:53:55;5.97;;;2.97;;
8552;SDS011;73833;51.014;16.950;2023-12-22T12:56:21;4.72;;;2.70;;
8552;SDS011;73833;51.014;16.950;2023-12-22T12:58:46;4.00;;;2.42;;
8552;SDS011;73833;51.014;16.950;2023-12-22T13:01:11;4.47;;;2.22;;
8552;SDS011;73833;51.014;16.950;2023-12-22T13:03:52;3.85;;;2.47;;
8552;SDS011;73833;51.014;16.950;2023-12-22T13:06:18;5.18;;;2.55;;
8552;SDS011;73833;51.014;16.950;2023-12-22T13:08:50;4.68;;;2.50;;
8552;SDS011;73833;51.014;16.950;2023-12-22T13:11:18;4.05;;;2.40;;
8552;SDS011;73833;51.014;16.950;2023-12-22T13:13:45;2.83;;;2.40;;
8552;SDS011;73833;51.014;16.950;2023-12-22T13:16:10;4.35;;;2.33;;
8552;SDS011;73833;51.014;16.950;2023-12-22T13:18:35;3.90;;;2.40;;
8552;SDS011;73833;51.014;16.950;2023-12-22T13:21:01;4.43;;;2.22;;
8552;SDS011;73833;51.014;16.950;2023-12-22T13:23:26;5.30;;;2.42;;
8552;SDS011;73833;51.014;16.950;2023-12-22T13:25:52;3.65;;;2.47;;
8552;SDS011;73833;51.014;16.950;2023-12-22T13:28:24;5.72;;;2.63;;
8552;SDS011;73833;51.014;16.950;2023-12-22T13:30:50;3.70;;;2.15;;
8552;SDS011;73833;51.014;16.950;2023-12-22T13:33:15;5.35;;;2.30;;
8552;SDS011;73833;51.014;16.950;2023-12-22T13:35:40;3.42;;;2.38;;
8552;SDS011;73833;51.014;16.950;2023-12-22T13:38:06;1.92;;;1.83;;
8552;SDS011;73833;51.014;16.950;2023-12-22T13:40:31;6.97;;;2.45;;
8552;SDS011;73833;51.014;16.950;2023-12-22T13:42:57;5.03;;;2.33;;
8552;SDS011;73833;51.014;16.950;2023-12-22T13:45:23;2.70;;;2.35;;
8552;SDS011;73833;51.014;16.950;2023-12-22T13:47:48;3.85;;;2.50;;
8552;SDS011;73833;51.014;16.950;2023-12-22T13:50:16;3.28;;;2.33;;
8552;SDS011;73833;51.014;16.950;2023-12-22T13:52:43;3.28;;;2.10;;
8552;SDS011;73833;51.014;16.950;2023-12-22T13:55:14;5.05;;;2.30;;
8552;SDS011;73833;51.014;16.950;2023-12-22T13:57:40;2.17;;;1.90;;
8552;SDS011;73833;51.014;16.950;2023-12-22T14:00:51;3.80;;;2.33;;
8552;SDS011;73833;51.014;16.950;2023-12-22T14:02:51;2.63;;;2.20;;
8552;SDS011;73833;51.014;16.950;2023-12-22T14:05:18;2.42;;;2.20;;
8552;SDS011;73833;51.014;16.950;2023-12-22T14:07:43;2.00;;;1.90;;
8552;SDS011;73833;51.014;16.950;2023-12-22T14:10:09;2.63;;;2.10;;
8552;SDS011;73833;51.014;16.950;2023-12-22T14:12:35;2.20;;;2.00;;
8552;SDS011;73833;51.014;16.950;2023-12-22T14:15:00;3.55;;;2.30;;
8552;SDS011;73833;51.014;16.950;2023-12-22T14:17:25;4.40;;;2.00;;
8552;SDS011;73833;51.014;16.950;2023-12-22T14:19:51;4.55;;;2.10;;
8552;SDS011;73833;51.014;16.950;2023-12-22T14:22:16;2.30;;;2.10;;
8552;SDS011;73833;51.014;16.950;2023-12-22T14:24:42;3.15;;;2.22;;
8552;SDS011;73833;51.014;16.950;2023-12-22T14:27:07;2.50;;;2.28;;
8552;SDS011;73833;51.014;16.950;2023-12-22T14:29:32;3.78;;;2.17;;
8552;SDS011;73833;51.014;16.950;2023-12-22T14:32:00;4.95;;;2.25;;
8552;SDS011;73833;51.014;16.950;2023-12-22T14:34:25;3.00;;;2.50;;
8552;SDS011;73833;51.014;16.950;2023-12-22T14:36:51;2.60;;;2.40;;
8552;SDS011;73833;51.014;16.950;2023-12-22T14:39:16;3.30;;;2.22;;
8552;SDS011;73833;51.014;16.950;2023-12-22T14:41:41;3.80;;;2.33;;
8552;SDS011;73833;51.014;16.950;2023-12-22T14:44:09;4.97;;;2.45;;
8552;SDS011;73833;51.014;16.950;2023-12-22T14:46:40;3.22;;;2.05;;
8552;SDS011;73833;51.014;16.950;2023-12-22T14:49:06;2.72;;;2.00;;
8552;SDS011;73833;51.014;16.950;2023-12-22T14:51:38;2.15;;;1.92;;
8552;SDS011;73833;51.014;16.950;2023-12-22T14:54:06;3.55;;;2.20;;
8552;SDS011;73833;51.014;16.950;2023-12-22T14:56:33;2.10;;;1.95;;
8552;SDS011;73833;51.014;16.950;2023-12-22T14:58:58;1.90;;;1.80;;
8552;SDS011;73833;51.014;16.950;2023-12-22T15:01:24;4.25;;;2.13;;
8552;SDS011;73833;51.014;16.950;2023-12-22T15:03:49;4.47;;;2.30;;
8552;SDS011;73833;51.014;16.950;2023-12-22T15:06:15;1.95;;;1.85;;
8552;SDS011;73833;51.014;16.950;2023-12-22T15:08:40;2.10;;;1.90;;
8552;SDS011;73833;51.014;16.950;2023-12-22T15:11:06;2.22;;;2.03;;
8552;SDS011;73833;51.014;16.950;2023-12-22T15:13:32;2.50;;;2.30;;
8552;SDS011;73833;51.014;16.950;2023-12-22T15:15:57;2.90;;;2.00;;
8552;SDS011;73833;51.014;16.950;2023-12-22T15:18:22;2.10;;;1.90;;
8552;SDS011;73833;51.014;16.950;2023-12-22T15:20:48;2.30;;;2.05;;
8552;SDS011;73833;51.014;16.950;2023-12-22T15:23:16;3.22;;;2.17;;
8552;SDS011;73833;51.014;16.950;2023-12-22T15:25:41;3.20;;;2.17;;
8552;SDS011;73833;51.014;16.950;2023-12-22T15:28:06;2.58;;;2.38;;
8552;SDS011;73833;51.014;16.950;2023-12-22T15:30:33;3.03;;;2.20;;
8552;SDS011;73833;51.014;16.950;2023-12-22T15:32:58;3.35;;;2.00;;
8552;SDS011;73833;51.014;16.950;2023-12-22T15:35:24;2.88;;;2.30;;
8552;SDS011;73833;51.014;16.950;2023-12-22T15:37:49;2.22;;;1.98;;
8552;SDS011;73833;51.014;16.950;2023-12-22T15:40:15;2.88;;;2.17;;
8552;SDS011;73833;51.014;16.950;2023-12-22T15:42:41;2.20;;;2.03;;
8552;SDS011;73833;51.014;16.950;2023-12-22T15:45:06;2.58;;;2.22;;
8552;SDS011;73833;51.014;16.950;2023-12-22T15:47:32;3.13;;;2.00;;
8552;SDS011;73833;51.014;16.950;2023-12-22T15:49:57;4.68;;;2.40;;
8552;SDS011;73833;51.014;16.950;2023-12-22T15:52:22;4.15;;;2.30;;
8552;SDS011;73833;51.014;16.950;2023-12-22T15:54:47;2.95;;;2.22;;
8552;SDS011;73833;51.014;16.950;2023-12-22T15:57:12;2.25;;;2.05;;
8552;SDS011;73833;51.014;16.950;2023-12-22T15:59:38;2.33;;;2.13;;
8552;SDS011;73833;51.014;16.950;2023-12-22T16:02:03;3.45;;;2.50;;
8552;SDS011;73833;51.014;16.950;2023-12-22T16:04:28;3.33;;;2.20;;
8552;SDS011;73833;51.014;16.950;2023-12-22T16:06:55;4.47;;;2.75;;
8552;SDS011;73833;51.014;16.950;2023-12-22T16:09:20;1.88;;;1.70;;
8552;SDS011;73833;51.014;16.950;2023-12-22T16:11:45;2.85;;;2.38;;
8552;SDS011;73833;51.014;16.950;2023-12-22T16:14:11;3.47;;;2.30;;
8552;SDS011;73833;51.014;16.950;2023-12-22T16:16:36;3.38;;;2.50;;
8552;SDS011;73833;51.014;16.950;2023-12-22T16:19:01;1.98;;;1.83;;
8552;SDS011;73833;51.014;16.950;2023-12-22T16:21:26;2.33;;;2.10;;
8552;SDS011;73833;51.014;16.950;2023-12-22T16:23:52;2.15;;;1.95;;
8552;SDS011;73833;51.014;16.950;2023-12-22T16:26:20;2.42;;;2.33;;
8552;SDS011;73833;51.014;16.950;2023-12-22T16:28:46;2.75;;;1.98;;
8552;SDS011;73833;51.014;16.950;2023-12-22T16:31:11;2.20;;;2.00;;
8552;SDS011;73833;51.014;16.950;2023-12-22T16:33:36;3.88;;;2.15;;
8552;SDS011;73833;51.014;16.950;2023-12-22T16:36:01;2.80;;;2.25;;
8552;SDS011;73833;51.014;16.950;2023-12-22T16:38:27;2.60;;;2.20;;
8552;SDS011;73833;51.014;16.950;2023-12-22T16:40:52;3.13;;;2.28;;
8552;SDS011;73833;51.014;16.950;2023-12-22T16:43:17;3.30;;;2.45;;
8552;SDS011;73833;51.014;16.950;2023-12-22T16:45:43;4.80;;;1.98;;
8552;SDS011;73833;51.014;16.950;2023-12-22T16:48:08;8.82;;;2.15;;
8552;SDS011;73833;51.014;16.950;2023-12-22T16:50:33;3.78;;;2.47;;
8552;SDS011;73833;51.014;16.950;2023-12-22T16:52:58;5.97;;;2.60;;
8552;SDS011;73833;51.014;16.950;2023-12-22T16:55:24;6.10;;;2.15;;
8552;SDS011;73833;51.014;16.950;2023-12-22T16:57:49;5.07;;;2.22;;
8552;SDS011;73833;51.014;16.950;2023-12-22T17:00:15;2.40;;;2.20;;
8552;SDS011;73833;51.014;16.950;2023-12-22T17:02:41;5.85;;;2.40;;
8552;SDS011;73833;51.014;16.950;2023-12-22T17:05:06;2.47;;;2.28;;
8552;SDS011;73833;51.014;16.950;2023-12-22T17:07:33;3.67;;;2.50;;
8552;SDS011;73833;51.014;16.950;2023-12-22T17:09:58;4.40;;;2.40;;
8552;SDS011;73833;51.014;16.950;2023-12-22T17:12:23;2.72;;;2.25;;
8552;SDS011;73833;51.014;16.950;2023-12-22T17:14:49;3.42;;;2.60;;
8552;SDS011;73833;51.014;16.950;2023-12-22T17:17:14;4.13;;;2.85;;
8552;SDS011;73833;51.014;16.950;2023-12-22T17:19:41;4.97;;;2.47;;
8552;SDS011;73833;51.014;16.950;2023-12-22T17:22:13;3.22;;;2.38;;
8552;SDS011;73833;51.014;16.950;2023-12-22T17:24:38;2.72;;;2.53;;
8552;SDS011;73833;51.014;16.950;2023-12-22T17:27:08;5.07;;;2.30;;
8552;SDS011;73833;51.014;16.950;2023-12-22T17:29:33;4.15;;;2.63;;
8552;SDS011;73833;51.014;16.950;2023-12-22T17:31:58;4.22;;;2.25;;
8552;SDS011;73833;51.014;16.950;2023-12-22T17:34:25;5.85;;;2.00;;
8552;SDS011;73833;51.014;16.950;2023-12-22T17:36:50;4.57;;;2.72;;
8552;SDS011;73833;51.014;16.950;2023-12-22T17:39:16;4.68;;;2.58;;
8552;SDS011;73833;51.014;16.950;2023-12-22T17:41:41;7.68;;;2.70;;
8552;SDS011;73833;51.014;16.950;2023-12-22T17:44:08;4.03;;;2.65;;
8552;SDS011;73833;51.014;16.950;2023-12-22T17:46:33;5.82;;;2.80;;
8552;SDS011;73833;51.014;16.950;2023-12-22T17:48:59;3.25;;;2.33;;
8552;SDS011;73833;51.014;16.950;2023-12-22T17:51:24;3.05;;;2.17;;
8552;SDS011;73833;51.014;16.950;2023-12-22T17:53:49;3.72;;;2.50;;
8552;SDS011;73833;51.014;16.950;2023-12-22T17:56:15;3.22;;;2.38;;
8552;SDS011;73833;51.014;16.950;2023-12-22T17:58:40;5.13;;;2.60;;
8552;SDS011;73833;51.014;16.950;2023-12-22T18:01:06;3.78;;;2.60;;
8552;SDS011;73833;51.014;16.950;2023-12-22T18:03:31;4.90;;;2.20;;
8552;SDS011;73833;51.014;16.950;2023-12-22T18:05:56;2.45;;;2.20;;
8552;SDS011;73833;51.014;16.950;2023-12-22T18:08:21;4.10;;;2.50;;
8552;SDS011;73833;51.014;16.950;2023-12-22T18:10:46;3.15;;;2.42;;
8552;SDS011;73833;51.014;16.950;2023-12-22T18:13:12;3.85;;;2.60;;
8552;SDS011;73833;51.014;16.950;2023-12-22T18:15:37;6.07;;;2.30;;
8552;SDS011;73833;51.014;16.950;2023-12-22T18:18:02;3.65;;;2.22;;
8552;SDS011;73833;51.014;16.950;2023-12-22T18:20:27;5.18;;;2.50;;
8552;SDS011;73833;51.014;16.950;2023-12-22T18:22:53;3.45;;;2.58;;
8552;SDS011;73833;51.014;16.950;2023-12-22T18:25:18;3.63;;;2.70;;
8552;SDS011;73833;51.014;16.950;2023-12-22T18:27:44;2.80;;;2.20;;
8552;SDS011;73833;51.014;16.950;2023-12-22T18:30:09;3.10;;;2.67;;
8552;SDS011;73833;51.014;16.950;2023-12-22T18:32:34;5.13;;;2.78;;
8552;SDS011;73833;51.014;16.950;2023-12-22T18:35:00;4.82;;;2.33;;
8552;SDS011;73833;51.014;16.950;2023-12-22T18:37:25;3.38;;;2.28;;
8552;SDS011;73833;51.014;16.950;2023-12-22T18:39:50;4.18;;;2.20;;
8552;SDS011;73833;51.014;16.950;2023-12-22T18:42:16;6.93;;;2.42;;
8552;SDS011;73833;51.014;16.950;2023-12-22T18:44:41;3.67;;;2.60;;
8552;SDS011;73833;51.014;16.950;2023-12-22T18:47:06;4.85;;;2.45;;
8552;SDS011;73833;51.014;16.950;2023-12-22T18:49:31;2.45;;;2.25;;
8552;SDS011;73833;51.014;16.950;2023-12-22T18:51:57;3.20;;;2.53;;
8552;SDS011;73833;51.014;16.950;2023-12-22T18:54:22;4.97;;;2.15;;
8552;SDS011;73833;51.014;16.950;2023-12-22T18:56:47;3.95;;;2.20;;
8552;SDS011;73833;51.014;16.950;2023-12-22T18:59:14;7.30;;;2.53;;
8552;SDS011;73833;51.014;16.950;2023-12-22T19:01:40;4.22;;;1.95;;
8552;SDS011;73833;51.014;16.950;2023-12-22T19:04:05;3.50;;;2.53;;
8552;SDS011;73833;51.014;16.950;2023-12-22T19:06:31;2.58;;;2.38;;
8552;SDS011;73833;51.014;16.950;2023-12-22T19:08:56;3.63;;;2.30;;
8552;SDS011;73833;51.014;16.950;2023-12-22T19:11:21;2.63;;;2.40;;
8552;SDS011;73833;51.014;16.950;2023-12-22T19:13:46;6.05;;;2.50;;
8552;SDS011;73833;51.014;16.950;2023-12-22T19:16:12;4.60;;;2.50;;
8552;SDS011;73833;51.014;16.950;2023-12-22T19:18:37;3.75;;;2.42;;
8552;SDS011;73833;51.014;16.950;2023-12-22T19:21:02;3.65;;;2.67;;
8552;SDS011;73833;51.014;16.950;2023-12-22T19:23:28;2.55;;;1.98;;
8552;SDS011;73833;51.014;16.950;2023-12-22T19:25:53;4.88;;;2.30;;
8552;SDS011;73833;51.014;16.950;2023-12-22T19:28:21;6.35;;;2.10;;
8552;SDS011;73833;51.014;16.950;2023-12-22T19:30:49;4.68;;;2.60;;
8552;SDS011;73833;51.014;16.950;2023-12-22T19:33:17;2.88;;;1.95;;
8552;SDS011;73833;51.014;16.950;2023-12-22T19:35:42;4.60;;;2.17;;
8552;SDS011;73833;51.014;16.950;2023-12-22T19:38:07;3.83;;;2.33;;
8552;SDS011;73833;51.014;16.950;2023-12-22T19:40:32;3.45;;;2.30;;
8552;SDS011;73833;51.014;16.950;2023-12-22T19:42:58;5.20;;;2.65;;
8552;SDS011;73833;51.014;16.950;2023-12-22T19:45:23;3.72;;;2.40;;
8552;SDS011;73833;51.014;16.950;2023-12-22T19:47:48;3.22;;;2.15;;
8552;SDS011;73833;51.014;16.950;2023-12-22T19:50:13;5.82;;;2.53;;
8552;SDS011;73833;51.014;16.950;2023-12-22T19:52:39;4.05;;;2.20;;
8552;SDS011;73833;51.014;16.950;2023-12-22T19:55:04;3.00;;;2.70;;
8552;SDS011;73833;51.014;16.950;2023-12-22T19:57:31;3.05;;;2.50;;
8552;SDS011;73833;51.014;16.950;2023-12-22T19:59:57;3.35;;;2.40;;
8552;SDS011;73833;51.014;16.950;2023-12-22T20:02:22;4.15;;;2.53;;
8552;SDS011;73833;51.014;16.950;2023-12-22T20:04:47;2.58;;;2.30;;
8552;SDS011;73833;51.014;16.950;2023-12-22T20:07:12;3.58;;;2.13;;
8552;SDS011;73833;51.014;16.950;2023-12-22T20:09:38;3.30;;;2.67;;
8552;SDS011;73833;51.014;16.950;2023-12-22T20:12:05;3.58;;;2.42;;
8552;SDS011;73833;51.014;16.950;2023-12-22T20:14:30;4.32;;;2.47;;
8552;SDS011;73833;51.014;16.950;2023-12-22T20:16:55;3.45;;;2.25;;
8552;SDS011;73833;51.014;16.950;2023-12-22T20:19:22;2.22;;;1.92;;